Burton, Illinois
Current Conditions -  °F | °C
As of 11:54 PM on Sunday 21 Dec 2014 (Local Time) from KUIN Reporting Station
Overcast Overcast  
Wind Chill:   Ceiling: 4100
Heat Index:   Visibility: 9mi
Dew Point:   Wind: 10mph
Humidity: 79%   Direction: 150°SSE
Pressure: 29.88"   Gusts: NA
Location:  39.9317°N, 91.2953°W
Report Text: KUIN 220554Z AUTO 15009KT 9SM BKN041 OVC055 04/01 A2988 RMK AO2 SLP123 60000 T00390006 10050 20039 400670028 58010
Loading
Personal Weather Stations






























Interactive Weather Map New forecast layout! Learn more

10-Day Weather Forecast

Advertisements
Track Severe Weather on mobile